createdAt,value
2022-09-28T00:00:22.061Z,6.00
2022-09-28T00:02:53.585Z,5.38
2022-09-28T00:05:29.262Z,4.20
2022-09-28T00:08:14.472Z,4.30
2022-09-28T00:10:43.411Z,3.78
2022-09-28T00:13:13.645Z,3.88
2022-09-28T00:15:52.692Z,2.70
2022-09-28T00:18:24.820Z,2.58
2022-09-28T00:21:19.928Z,2.10
2022-09-28T00:24:18.216Z,1.75
2022-09-28T00:26:55.419Z,1.88
2022-09-28T00:29:39.997Z,1.40
2022-09-28T00:32:14.846Z,1.52
2022-09-28T00:34:49.983Z,1.48
2022-09-28T00:37:25.769Z,1.30
2022-09-28T00:40:02.023Z,1.30
2022-09-28T00:42:33.764Z,1.20
2022-09-28T00:45:15.141Z,0.82
2022-09-28T00:47:52.839Z,1.20
2022-09-28T00:50:34.455Z,1.00
2022-09-28T00:53:20.188Z,1.05
2022-09-28T00:56:04.177Z,0.95
2022-09-28T00:58:36.651Z,0.80
2022-09-28T01:01:09.419Z,0.80
2022-09-28T01:03:39.939Z,1.10
2022-09-28T01:06:12.683Z,1.23
2022-09-28T01:08:47.471Z,1.05
2022-09-28T01:11:23.540Z,0.93
2022-09-28T01:13:54.528Z,1.17
2022-09-28T01:16:57.668Z,1.58
2022-09-28T01:20:05.204Z,1.08
2022-09-28T01:25:58.754Z,1.20
2022-09-28T01:28:35.452Z,1.30
2022-09-28T01:31:17.801Z,1.90
2022-09-28T01:33:52.014Z,1.33
2022-09-28T01:36:46.903Z,1.40
2022-09-28T01:39:34.644Z,1.70
2022-09-28T01:42:19.278Z,1.20
2022-09-28T01:44:57.078Z,1.50
2022-09-28T01:47:33.771Z,1.63
2022-09-28T01:50:26.157Z,1.40
2022-09-28T01:53:20.235Z,1.30
2022-09-28T01:55:55.120Z,1.80
2022-09-28T01:59:11.268Z,1.58
2022-09-28T02:02:10.081Z,1.80
2022-09-28T02:05:24.777Z,1.42
2022-09-28T02:08:18.782Z,1.55
2022-09-28T02:11:03.720Z,1.90
2022-09-28T02:14:04.233Z,1.48
2022-09-28T02:16:47.638Z,1.55
2022-09-28T02:19:37.135Z,1.65
2022-09-28T02:22:30.072Z,1.85
2022-09-28T02:25:06.932Z,1.45
2022-09-28T02:28:06.099Z,1.58
2022-09-28T02:30:38.733Z,1.83
2022-09-28T02:33:44.421Z,1.73
2022-09-28T02:36:16.397Z,1.73
2022-09-28T02:38:48.144Z,1.27
2022-09-28T02:41:36.243Z,1.50
2022-09-28T02:44:44.707Z,1.85
2022-09-28T02:48:24.048Z,1.95
2022-09-28T02:51:22.217Z,2.58
2022-09-28T02:54:07.164Z,2.85
2022-09-28T02:56:47.150Z,3.70
2022-09-28T02:59:44.529Z,3.28
2022-09-28T03:02:35.256Z,3.38
2022-09-28T03:05:33.016Z,2.83
2022-09-28T03:08:17.991Z,2.72
2022-09-28T03:11:12.164Z,2.25
2022-09-28T03:13:42.685Z,3.15
2022-09-28T03:16:21.442Z,2.78
2022-09-28T03:18:55.109Z,3.17
2022-09-28T03:21:28.024Z,1.95
2022-09-28T03:23:59.888Z,1.65
2022-09-28T03:26:33.371Z,2.35
2022-09-28T03:29:03.508Z,2.50
2022-09-28T03:31:34.038Z,2.13
2022-09-28T03:34:05.120Z,2.22
2022-09-28T03:36:38.011Z,2.13
2022-09-28T03:39:13.183Z,2.25
2022-09-28T03:42:03.045Z,2.35
2022-09-28T03:47:13.677Z,2.00
2022-09-28T03:49:45.687Z,2.20
2022-09-28T03:52:23.718Z,2.17
2022-09-28T03:54:54.743Z,2.05
2022-09-28T03:57:27.660Z,2.15
2022-09-28T04:00:03.726Z,1.90
2022-09-28T04:02:45.583Z,2.65
2022-09-28T04:05:19.994Z,2.80
2022-09-28T04:07:53.927Z,2.78
2022-09-28T04:10:24.023Z,2.55
2022-09-28T04:12:59.377Z,3.63
2022-09-28T04:15:29.709Z,3.33
2022-09-28T04:18:01.650Z,3.58
2022-09-28T04:21:11.069Z,2.80
2022-09-28T04:23:59.366Z,3.05
2022-09-28T04:26:29.076Z,3.30
2022-09-28T04:29:17.210Z,2.80
2022-09-28T04:31:59.821Z,3.83
2022-09-28T04:34:43.761Z,3.30
2022-09-28T04:37:15.972Z,3.83
2022-09-28T04:39:48.520Z,4.65
2022-09-28T04:42:21.907Z,4.18
2022-09-28T04:47:25.807Z,4.75
2022-09-28T04:50:14.016Z,4.88
2022-09-28T04:53:03.961Z,5.03
2022-09-28T04:55:38.967Z,4.90
2022-09-28T04:58:11.178Z,6.30
2022-09-28T05:00:43.996Z,8.07
2022-09-28T05:03:35.981Z,3.67
2022-09-28T05:09:14.936Z,4.75
2022-09-28T05:11:47.765Z,5.40
2022-09-28T05:14:46.674Z,15.70
2022-09-28T05:17:24.143Z,33.55
2022-09-28T05:20:07.790Z,28.55
2022-09-28T05:22:42.952Z,32.30
2022-09-28T05:25:14.949Z,39.47
2022-09-28T05:28:06.543Z,7.10
2022-09-28T05:31:03.696Z,3.50
2022-09-28T05:33:54.964Z,4.28
2022-09-28T05:36:23.218Z,5.15
2022-09-28T05:38:57.787Z,3.70
2022-09-28T05:41:29.379Z,3.40
2022-09-28T05:44:03.346Z,3.40
2022-09-28T05:46:41.187Z,3.78
2022-09-28T05:49:14.391Z,3.78
2022-09-28T05:51:43.272Z,3.88
2022-09-28T05:54:16.004Z,3.55
2022-09-28T05:56:50.792Z,3.40
2022-09-28T05:59:20.138Z,3.47
2022-09-28T06:01:51.738Z,4.25
2022-09-28T06:04:21.272Z,4.88
2022-09-28T06:06:51.624Z,4.93
2022-09-28T06:09:26.034Z,3.88
2022-09-28T06:12:20.181Z,6.00
2022-09-28T06:15:00.069Z,4.70
2022-09-28T06:17:37.619Z,5.10
2022-09-28T06:20:48.045Z,4.20
2022-09-28T06:23:21.990Z,5.03
2022-09-28T06:25:53.267Z,4.00
2022-09-28T06:28:23.062Z,3.50
2022-09-28T06:30:54.310Z,2.83
2022-09-28T06:33:27.010Z,2.85
2022-09-28T06:35:57.340Z,3.05
2022-09-28T06:38:30.256Z,2.53
2022-09-28T06:41:00.462Z,3.08
2022-09-28T06:43:34.247Z,2.90
2022-09-28T06:46:18.176Z,2.75
2022-09-28T06:49:10.437Z,3.33
2022-09-28T06:52:02.937Z,4.10
2022-09-28T06:54:54.904Z,3.92
2022-09-28T06:57:29.989Z,5.55
2022-09-28T07:00:14.593Z,5.93
2022-09-28T07:02:47.185Z,15.40
2022-09-28T07:05:42.411Z,9.70
2022-09-28T07:08:38.133Z,8.18
2022-09-28T07:11:36.228Z,9.18
2022-09-28T07:14:31.463Z,18.23
2022-09-28T07:17:13.770Z,7.22
2022-09-28T07:19:47.621Z,6.30
2022-09-28T07:22:19.379Z,4.68
2022-09-28T07:24:53.113Z,7.72
2022-09-28T07:27:51.701Z,7.03
2022-09-28T07:30:37.784Z,7.05
2022-09-28T07:33:21.665Z,6.10
2022-09-28T07:36:02.907Z,5.63
2022-09-28T07:38:36.921Z,5.13
2022-09-28T07:41:14.567Z,4.68
2022-09-28T07:43:53.168Z,4.38
2022-09-28T07:46:24.780Z,5.60
2022-09-28T07:49:01.647Z,5.80
2022-09-28T07:51:38.280Z,5.20
2022-09-28T07:54:41.039Z,4.60
2022-09-28T08:00:40.968Z,3.30
2022-09-28T08:03:15.933Z,3.50
2022-09-28T08:05:53.945Z,3.03
2022-09-28T08:08:26.488Z,2.88
2022-09-28T08:10:58.968Z,3.97
2022-09-28T08:14:04.713Z,5.38
2022-09-28T08:17:26.719Z,8.75
2022-09-28T08:20:30.955Z,9.13
2022-09-28T08:23:13.540Z,7.45
2022-09-28T08:25:50.190Z,4.85
2022-09-28T08:28:27.354Z,4.10
2022-09-28T08:31:01.789Z,6.80
2022-09-28T08:33:39.290Z,7.20
2022-09-28T08:36:31.559Z,4.05
2022-09-28T08:39:22.351Z,3.85
2022-09-28T08:42:24.543Z,4.03
2022-09-28T08:45:23.111Z,4.10
2022-09-28T08:49:23.661Z,3.95
2022-09-28T08:52:30.790Z,9.70
2022-09-28T08:55:36.601Z,5.82
2022-09-28T08:58:22.688Z,3.30
2022-09-28T09:00:52.840Z,2.67
2022-09-28T09:03:37.130Z,2.80
2022-09-28T09:06:46.748Z,3.17
2022-09-28T09:09:57.711Z,5.00
2022-09-28T09:13:01.962Z,6.35
2022-09-28T09:15:55.279Z,4.30
2022-09-28T09:19:00.883Z,2.53
2022-09-28T09:22:19.052Z,2.20
2022-09-28T09:24:56.567Z,2.33
2022-09-28T09:27:37.453Z,2.20
2022-09-28T09:30:20.563Z,2.00
2022-09-28T09:33:24.483Z,1.60
2022-09-28T09:36:51.816Z,1.65
2022-09-28T09:40:14.691Z,1.80
2022-09-28T09:43:35.291Z,1.40
2022-09-28T09:46:39.619Z,1.50
2022-09-28T09:49:30.484Z,1.08
2022-09-28T09:52:17.331Z,1.08
2022-09-28T09:55:06.486Z,2.30
2022-09-28T09:57:57.389Z,2.70
2022-09-28T10:00:49.357Z,1.60
2022-09-28T10:03:31.590Z,1.35
2022-09-28T10:06:19.443Z,2.45
2022-09-28T10:09:03.231Z,1.40
2022-09-28T10:11:49.416Z,1.75
2022-09-28T10:14:26.149Z,1.40
2022-09-28T10:17:07.684Z,1.70
2022-09-28T10:19:57.363Z,1.70
2022-09-28T10:22:44.953Z,2.30
2022-09-28T10:25:20.696Z,1.63
2022-09-28T10:27:53.335Z,1.48
2022-09-28T10:30:28.666Z,2.20
2022-09-28T10:33:06.013Z,1.52
2022-09-28T10:35:47.823Z,2.60
2022-09-28T10:38:20.330Z,2.10
2022-09-28T10:41:21.607Z,2.42
2022-09-28T10:44:18.075Z,2.45
2022-09-28T10:47:10.704Z,1.90
2022-09-28T10:49:47.106Z,2.50
2022-09-28T10:52:47.564Z,2.90
2022-09-28T10:55:39.452Z,2.20
2022-09-28T10:58:28.817Z,2.60
2022-09-28T11:01:10.519Z,2.67
2022-09-28T11:03:58.874Z,2.42
2022-09-28T11:06:36.400Z,5.00
2022-09-28T11:09:39.656Z,3.60
2022-09-28T11:12:17.044Z,3.17
2022-09-28T11:14:52.711Z,3.15
2022-09-28T11:17:44.658Z,3.50
2022-09-28T11:20:37.731Z,3.50
2022-09-28T11:23:27.581Z,3.70
2022-09-28T11:26:18.618Z,4.07
2022-09-28T11:28:52.629Z,5.22
2022-09-28T11:31:39.979Z,4.90
2022-09-28T11:34:41.820Z,4.25
2022-09-28T11:37:45.664Z,4.97
2022-09-28T11:40:35.783Z,4.50
2022-09-28T11:43:19.838Z,5.18
2022-09-28T11:47:01.507Z,5.40
2022-09-28T11:49:49.997Z,5.32
2022-09-28T11:52:44.671Z,5.28
2022-09-28T11:55:29.547Z,3.88
2022-09-28T11:58:36.537Z,4.88
2022-09-28T12:01:38.220Z,4.75
2022-09-28T12:04:23.158Z,4.88
2022-09-28T12:07:19.981Z,4.97
2022-09-28T12:10:15.376Z,4.90
2022-09-28T12:13:06.054Z,5.43
2022-09-28T12:16:32.348Z,4.38
2022-09-28T12:19:20.691Z,4.60
2022-09-28T12:22:00.966Z,4.82
2022-09-28T12:24:46.309Z,4.47
2022-09-28T12:27:33.700Z,5.50
2022-09-28T12:30:18.275Z,4.75
2022-09-28T12:33:22.749Z,5.22
2022-09-28T12:36:30.914Z,4.32
2022-09-28T12:39:27.154Z,4.82
2022-09-28T12:45:38.668Z,5.15
2022-09-28T12:49:21.679Z,4.65
2022-09-28T12:52:06.037Z,5.30
2022-09-28T12:55:00.241Z,6.57
2022-09-28T12:57:43.022Z,5.75
2022-09-28T13:00:25.289Z,7.65
2022-09-28T13:03:37.878Z,6.80
2022-09-28T13:06:38.123Z,5.38
2022-09-28T13:09:20.541Z,8.25
2022-09-28T13:12:35.499Z,5.63
2022-09-28T13:15:23.598Z,3.70
2022-09-28T13:18:12.837Z,5.75
2022-09-28T13:21:04.708Z,5.45
2022-09-28T13:23:45.826Z,5.72
2022-09-28T13:26:38.293Z,5.35
2022-09-28T13:29:13.094Z,3.83
2022-09-28T13:31:56.044Z,3.70
2022-09-28T13:34:32.249Z,4.18
2022-09-28T13:37:27.824Z,4.18
2022-09-28T13:39:59.041Z,3.38
2022-09-28T13:43:08.403Z,5.53
2022-09-28T13:46:26.716Z,3.42
2022-09-28T13:49:12.589Z,4.85
2022-09-28T13:52:13.619Z,4.90
2022-09-28T13:55:19.917Z,7.32
2022-09-28T13:57:56.908Z,4.45
2022-09-28T14:00:39.732Z,4.97
2022-09-28T14:06:05.442Z,6.75
2022-09-28T14:09:04.116Z,6.05
2022-09-28T14:11:42.332Z,5.60
2022-09-28T14:14:17.147Z,6.50
2022-09-28T14:16:46.741Z,8.63
2022-09-28T14:19:38.816Z,5.63
2022-09-28T14:22:21.035Z,4.85
2022-09-28T14:24:58.178Z,4.55
2022-09-28T14:27:28.312Z,5.53
2022-09-28T14:30:17.530Z,5.97
2022-09-28T14:33:00.399Z,6.07
2022-09-28T14:35:52.227Z,6.53
2022-09-28T14:38:45.011Z,11.32
2022-09-28T14:41:36.868Z,11.88
2022-09-28T14:44:06.668Z,12.77
2022-09-28T14:46:47.932Z,12.85
2022-09-28T14:49:20.177Z,13.65
2022-09-28T14:51:49.371Z,6.80
2022-09-28T14:54:29.309Z,13.77
2022-09-28T14:57:22.256Z,13.57
2022-09-28T14:59:52.925Z,11.30
2022-09-28T15:02:36.812Z,11.73
2022-09-28T15:07:58.696Z,13.77
2022-09-28T15:10:46.266Z,17.48
2022-09-28T15:13:25.884Z,13.45
2022-09-28T15:19:41.544Z,16.85
2022-09-28T15:22:25.393Z,9.63
2022-09-28T15:25:06.576Z,12.80
2022-09-28T15:27:38.460Z,21.52
2022-09-28T15:30:28.345Z,15.55
2022-09-28T15:33:44.152Z,16.85
2022-09-28T15:36:28.164Z,18.67
2022-09-28T15:39:05.211Z,11.70
2022-09-28T15:41:36.468Z,11.18
2022-09-28T15:44:29.767Z,10.88
2022-09-28T15:47:21.810Z,10.13
2022-09-28T15:50:06.193Z,10.45
2022-09-28T15:53:08.001Z,15.98
2022-09-28T15:55:40.147Z,10.52
2022-09-28T15:58:25.701Z,14.07
2022-09-28T16:01:24.931Z,13.50
2022-09-28T16:03:59.377Z,16.58
2022-09-28T16:06:29.979Z,9.05
2022-09-28T16:09:04.679Z,9.25
2022-09-28T16:11:41.212Z,8.52
2022-09-28T16:14:24.111Z,7.25
2022-09-28T16:16:59.651Z,9.98
2022-09-28T16:19:43.999Z,9.38
2022-09-28T16:24:59.662Z,9.30
2022-09-28T16:27:46.066Z,6.85
2022-09-28T16:30:47.653Z,8.32
2022-09-28T16:33:51.721Z,7.95
2022-09-28T16:36:29.081Z,9.45
2022-09-28T16:39:01.940Z,8.30
2022-09-28T16:41:32.815Z,8.95
2022-09-28T16:44:04.321Z,11.13
2022-09-28T16:46:39.654Z,10.18
2022-09-28T16:49:20.900Z,14.60
2022-09-28T16:52:03.719Z,10.93
2022-09-28T16:54:52.549Z,7.03
2022-09-28T16:57:23.926Z,7.85
2022-09-28T16:59:54.876Z,7.80
2022-09-28T17:02:45.609Z,7.53
2022-09-28T17:05:20.836Z,7.10
2022-09-28T17:08:06.396Z,9.30
2022-09-28T17:11:18.122Z,12.68
2022-09-28T17:13:50.351Z,10.55
2022-09-28T17:16:49.375Z,10.02
2022-09-28T17:19:34.733Z,9.57
2022-09-28T17:22:06.506Z,5.93
2022-09-28T17:24:35.429Z,7.18
2022-09-28T17:27:07.935Z,8.23
2022-09-28T17:29:39.400Z,7.50
2022-09-28T17:32:19.900Z,8.68
2022-09-28T17:35:00.781Z,7.80
2022-09-28T17:37:30.558Z,8.32
2022-09-28T17:40:02.211Z,8.90
2022-09-28T17:45:20.087Z,8.27
2022-09-28T17:47:51.866Z,8.35
2022-09-28T17:50:33.207Z,8.38
2022-09-28T17:53:08.235Z,8.48
2022-09-28T17:55:42.185Z,8.10
2022-09-28T17:58:22.124Z,7.80
2022-09-28T18:03:28.896Z,8.10
2022-09-28T18:06:09.940Z,12.85
2022-09-28T18:08:40.137Z,11.65
2022-09-28T18:11:12.632Z,10.80
2022-09-28T18:13:47.138Z,9.38
2022-09-28T18:16:19.775Z,9.52
2022-09-28T18:18:56.918Z,9.07
2022-09-28T18:21:29.050Z,8.45
2022-09-28T18:24:02.733Z,8.23
2022-09-28T18:26:30.842Z,5.95
2022-09-28T18:29:04.165Z,8.45
2022-09-28T18:31:42.203Z,8.63
2022-09-28T18:34:18.455Z,8.77
2022-09-28T18:36:53.703Z,8.55
2022-09-28T18:39:25.623Z,8.48
2022-09-28T18:42:09.479Z,8.45
2022-09-28T18:44:39.164Z,8.38
2022-09-28T18:47:19.230Z,8.50
2022-09-28T18:49:53.179Z,8.48
2022-09-28T18:52:26.072Z,7.95
2022-09-28T18:54:58.560Z,8.80
2022-09-28T18:57:32.874Z,8.27
2022-09-28T19:00:07.200Z,8.10
2022-09-28T19:02:44.448Z,9.13
2022-09-28T19:05:19.634Z,10.18
2022-09-28T19:07:51.885Z,9.38
2022-09-28T19:10:26.664Z,8.57
2022-09-28T19:12:59.171Z,8.95
2022-09-28T19:15:34.071Z,7.10
2022-09-28T19:18:04.070Z,8.90
2022-09-28T19:20:39.232Z,8.82
2022-09-28T19:23:12.136Z,8.95
2022-09-28T19:25:49.073Z,8.63
2022-09-28T19:28:21.256Z,8.75
2022-09-28T19:33:32.330Z,12.93
2022-09-28T19:36:08.580Z,18.70
2022-09-28T19:38:40.454Z,12.32
2022-09-28T19:41:13.012Z,17.20
2022-09-28T19:43:43.723Z,9.07
2022-09-28T19:46:13.752Z,8.90
2022-09-28T19:48:46.092Z,10.93
2022-09-28T19:51:17.041Z,10.48
2022-09-28T19:53:50.241Z,9.73
2022-09-28T19:56:21.247Z,9.38
2022-09-28T19:58:52.311Z,10.13
2022-09-28T20:01:23.247Z,9.38
2022-09-28T20:03:52.896Z,10.05
2022-09-28T20:06:29.378Z,14.32
2022-09-28T20:11:33.278Z,13.60
2022-09-28T20:14:13.398Z,20.55
2022-09-28T20:16:42.249Z,14.05
2022-09-28T20:19:13.315Z,9.98
2022-09-28T20:21:44.077Z,13.73
2022-09-28T20:24:26.920Z,9.52
2022-09-28T20:26:58.394Z,8.20
2022-09-28T20:29:33.814Z,8.88
2022-09-28T20:32:09.175Z,10.18
2022-09-28T20:34:41.538Z,10.52
2022-09-28T20:37:16.455Z,10.68
2022-09-28T20:42:18.911Z,13.15
2022-09-28T20:44:49.169Z,19.43
2022-09-28T20:47:19.324Z,19.23
2022-09-28T20:49:51.208Z,11.75
2022-09-28T20:52:24.336Z,9.20
2022-09-28T20:54:56.435Z,9.85
2022-09-28T20:57:29.322Z,10.43
2022-09-28T21:00:00.092Z,11.18
2022-09-28T21:02:30.280Z,16.27
2022-09-28T21:05:01.479Z,27.77
2022-09-28T21:07:34.538Z,40.47
2022-09-28T21:10:08.903Z,37.38
2022-09-28T21:12:43.005Z,18.23
2022-09-28T21:15:17.325Z,34.60
2022-09-28T21:17:47.497Z,10.77
2022-09-28T21:20:17.464Z,7.93
2022-09-28T21:22:48.690Z,6.53
2022-09-28T21:25:20.142Z,5.30
2022-09-28T21:27:54.153Z,5.60
2022-09-28T21:30:25.269Z,4.50
2022-09-28T21:32:59.228Z,5.13
2022-09-28T21:35:30.430Z,4.45
2022-09-28T21:38:03.170Z,4.55
2022-09-28T21:40:37.395Z,5.15
2022-09-28T21:43:10.323Z,5.40
2022-09-28T21:45:43.654Z,5.72
2022-09-28T21:48:14.895Z,5.13
2022-09-28T21:50:58.167Z,7.18
2022-09-28T21:53:32.471Z,5.95
2022-09-28T21:56:02.476Z,7.68
2022-09-28T21:58:37.791Z,9.07
2022-09-28T22:03:57.269Z,6.32
2022-09-28T22:06:31.385Z,5.63
2022-09-28T22:09:00.195Z,4.63
2022-09-28T22:11:36.475Z,5.95
2022-09-28T22:14:21.094Z,5.03
2022-09-28T22:16:54.827Z,4.75
2022-09-28T22:19:24.367Z,4.55
2022-09-28T22:21:55.797Z,4.85
2022-09-28T22:24:26.345Z,4.93
2022-09-28T22:27:00.835Z,5.05
2022-09-28T22:29:30.855Z,4.40
2022-09-28T22:32:05.336Z,5.57
2022-09-28T22:34:36.624Z,5.00
2022-09-28T22:37:09.695Z,5.38
2022-09-28T22:39:43.236Z,5.68
2022-09-28T22:42:16.731Z,3.97
2022-09-28T22:44:47.399Z,4.00
2022-09-28T22:47:16.558Z,4.35
2022-09-28T22:49:47.230Z,4.78
2022-09-28T22:55:00.924Z,3.80
2022-09-28T22:57:29.125Z,3.15
2022-09-28T23:00:03.462Z,2.90
2022-09-28T23:02:37.817Z,3.50
2022-09-28T23:05:09.403Z,3.50
2022-09-28T23:07:44.253Z,3.50
2022-09-28T23:10:16.070Z,3.78
2022-09-28T23:12:50.901Z,3.50
2022-09-28T23:15:25.919Z,3.70
2022-09-28T23:17:57.262Z,3.42
2022-09-28T23:20:27.961Z,2.55
2022-09-28T23:22:55.652Z,2.95
2022-09-28T23:25:31.298Z,2.72
2022-09-28T23:28:03.182Z,2.90
2022-09-28T23:30:34.904Z,3.05
2022-09-28T23:33:10.581Z,2.85
2022-09-28T23:35:48.528Z,3.00
2022-09-28T23:38:21.504Z,3.38
2022-09-28T23:40:54.576Z,3.28
2022-09-28T23:43:27.049Z,2.50
2022-09-28T23:46:00.381Z,3.20
2022-09-28T23:48:36.029Z,2.60
2022-09-28T23:51:07.655Z,2.63
2022-09-28T23:53:40.678Z,2.55
2022-09-28T23:56:15.677Z,2.58
